This is the latest recevied weather packets stored in our database for station/object WBKK. If no packets are shown the sender has not sent any weather packets the latest 10 day(s).
| Time | Temp. | Humidity | Pressure | Rain* | Wind** | Luminosity | Snow |
|---|---|---|---|---|---|---|---|
| 1777597946 | 30° C | 74% | 1009 hPa | - | - | - | - |
| 1777596053 | 30° C | 70% | 1009 hPa | - | - | - | - |
| 1777594315 | 28.89° C | 74% | 1009 hPa | - | - | - | - |
| 1777592450 | 26.67° C | 83% | 1008 hPa | - | - | - | - |
| 1777590717 | 25.56° C | 88% | 1008 hPa | - | - | - | - |
| 1777588850 | 25° C | 88% | 1008 hPa | - | - | - | - |
| 1777587117 | 25° C | 88% | 1008 hPa | - | - | - | - |
| 1777585249 | 25° C | 88% | 1008 hPa | - | - | - | - |
| 1777583546 | 25° C | 88% | 1007 hPa | - | - | - | - |
| 1777581653 | 25° C | 94% | 1007 hPa | - | - | - | - |
| 1777579917 | 25° C | 94% | 1007 hPa | - | - | - | - |
| 1777578051 | 25° C | 94% | 1007 hPa | - | - | - | - |
| 1777576317 | 25° C | 94% | 1007 hPa | - | - | - | - |
| 1777574449 | 25.56° C | 88% | 1007 hPa | - | - | - | - |
| 1777572716 | 25.56° C | 88% | 1007 hPa | - | - | - | - |
| 1777570849 | 25.56° C | 88% | 1008 hPa | - | - | - | - |
| 1777569144 | 25.56° C | 88% | 1008 hPa | - | - | - | - |
| 1777567248 | 25.56° C | 88% | 1008 hPa | - | - | - | - |
| 1777565516 | 25.56° C | 94% | 1009 hPa | - | - | - | - |
| 1777563649 | 26.67° C | 88% | 1008 hPa | - | - | - | - |
| 1777561918 | 26.67° C | 88% | 1009 hPa | - | - | - | - |
| 1777560048 | 26.67° C | 88% | 1009 hPa | - | - | - | - |
| 1777558316 | 26.67° C | 88% | 1008 hPa | - | - | - | - |
| 1777556451 | 26.67° C | 88% | 1008 hPa | - | - | - | - |
| 1777554744 | 27.78° C | 83% | 1008 hPa | - | - | - | - |
* Rain since midnight (hover to see other rain measurements)
** Current wind speed in m/s (hover to see current wind gust speed)